KSVH/SVH METAR and TAF weather

Enter ICAO airport designator
Station Type Date Time Source
KSVH METAR 2019/12/09 00:35 UTC NOAA

KSVH 090035Z AUTO 00000KT 10SM CLR 03/M04 A3030 RMK AO2 T00341042


Station Type Date Time Source
KSVH Decoded METAR 2019/12/09 00:35 UTC NOAA

Statesville, Statesville Municipal Airport, NC, United States (KSVH) 35-45-55N 080-57-24W
Dec 08, 2019 - 07:35 PM EST / 2019.12.09 0035 UTC
Wind: Calm:0
Visibility: 10 mile(s):0
Sky conditions: clear
Temperature: 38.1 F (3.4 C)
Dew Point: 24.4 F (-4.2 C)
Relative Humidity: 57%
Pressure (altimeter): 30.3 in. Hg (1026 hPa)
ob: KSVH 090035Z AUTO 00000KT 10SM CLR 03/M04 A3030 RMK AO2 T00341042
cycle: 0

Station Type Date Time Source
KSVH TAF UTC NOAA

Error!

Example: see airport list